Terminal Aerodrome Forecast
Issued by NWS Blacksburg, VA

Home | Current Version | Previous Version | Text Only | Print | Product List | Glossary On
Versions: 1 2 3 4 5 6 7 8 9 10 11 12 13 14 15 16
000
FTUS41 KRNK 310540
TAFLYH
TAF
KLYH 310540Z 3106/0106 04003KT P6SM BKN060
     FM312300 09003KT 6SM -RA OVC050
     FM010300 00000KT 3SM -RA BR OVC015=

USA.gov is the U.S. government's official web portal to all federal, state and local government web resources and services.